sensor_id;sensor_type;location;lat;lon;timestamp;P1;durP1;ratioP1;P2;durP2;ratioP2
50988;SDS011;37008;52.210;21.112;2023-09-18T00:00:49;27.52;;;20.33;;
50988;SDS011;37008;52.210;21.112;2023-09-18T00:03:16;29.27;;;20.30;;
50988;SDS011;37008;52.210;21.112;2023-09-18T00:05:43;28.80;;;20.25;;
50988;SDS011;37008;52.210;21.112;2023-09-18T00:08:10;31.08;;;19.83;;
50988;SDS011;37008;52.210;21.112;2023-09-18T00:10:35;31.48;;;20.33;;
50988;SDS011;37008;52.210;21.112;2023-09-18T00:13:01;33.67;;;22.02;;
50988;SDS011;37008;52.210;21.112;2023-09-18T00:15:27;35.55;;;22.13;;
50988;SDS011;37008;52.210;21.112;2023-09-18T00:17:53;30.75;;;19.95;;
50988;SDS011;37008;52.210;21.112;2023-09-18T00:20:18;33.50;;;20.73;;
50988;SDS011;37008;52.210;21.112;2023-09-18T00:22:45;35.65;;;24.60;;
50988;SDS011;37008;52.210;21.112;2023-09-18T00:25:11;35.05;;;22.98;;
50988;SDS011;37008;52.210;21.112;2023-09-18T00:27:36;36.08;;;22.58;;
50988;SDS011;37008;52.210;21.112;2023-09-18T00:30:03;32.50;;;21.45;;
50988;SDS011;37008;52.210;21.112;2023-09-18T00:32:29;35.30;;;22.60;;
50988;SDS011;37008;52.210;21.112;2023-09-18T00:34:55;45.28;;;25.00;;
50988;SDS011;37008;52.210;21.112;2023-09-18T00:37:21;42.45;;;25.02;;
50988;SDS011;37008;52.210;21.112;2023-09-18T00:39:46;42.88;;;26.30;;
50988;SDS011;37008;52.210;21.112;2023-09-18T00:42:14;46.65;;;27.85;;
50988;SDS011;37008;52.210;21.112;2023-09-18T00:44:41;33.20;;;22.13;;
50988;SDS011;37008;52.210;21.112;2023-09-18T00:47:09;34.47;;;22.52;;
50988;SDS011;37008;52.210;21.112;2023-09-18T00:49:38;33.95;;;22.15;;
50988;SDS011;37008;52.210;21.112;2023-09-18T00:52:05;33.17;;;21.10;;
50988;SDS011;37008;52.210;21.112;2023-09-18T00:54:32;34.55;;;22.55;;
50988;SDS011;37008;52.210;21.112;2023-09-18T00:57:00;32.40;;;21.50;;
50988;SDS011;37008;52.210;21.112;2023-09-18T00:59:25;37.60;;;22.00;;
50988;SDS011;37008;52.210;21.112;2023-09-18T01:01:51;35.63;;;21.35;;
50988;SDS011;37008;52.210;21.112;2023-09-18T01:04:17;55.55;;;28.00;;
50988;SDS011;37008;52.210;21.112;2023-09-18T01:06:43;56.28;;;29.40;;
50988;SDS011;37008;52.210;21.112;2023-09-18T01:09:09;42.28;;;24.02;;
50988;SDS011;37008;52.210;21.112;2023-09-18T01:11:42;43.80;;;28.33;;
50988;SDS011;37008;52.210;21.112;2023-09-18T01:17:07;37.85;;;23.77;;
50988;SDS011;37008;52.210;21.112;2023-09-18T01:19:36;31.17;;;22.77;;
50988;SDS011;37008;52.210;21.112;2023-09-18T01:22:09;29.48;;;21.08;;
50988;SDS011;37008;52.210;21.112;2023-09-18T01:24:36;37.42;;;23.70;;
50988;SDS011;37008;52.210;21.112;2023-09-18T01:27:03;35.25;;;23.55;;
50988;SDS011;37008;52.210;21.112;2023-09-18T01:29:32;36.08;;;22.10;;
50988;SDS011;37008;52.210;21.112;2023-09-18T01:31:57;44.28;;;21.85;;
50988;SDS011;37008;52.210;21.112;2023-09-18T01:34:28;39.65;;;25.15;;
50988;SDS011;37008;52.210;21.112;2023-09-18T01:36:57;36.30;;;24.65;;
50988;SDS011;37008;52.210;21.112;2023-09-18T01:39:23;40.40;;;23.67;;
50988;SDS011;37008;52.210;21.112;2023-09-18T01:41:55;41.40;;;26.00;;
50988;SDS011;37008;52.210;21.112;2023-09-18T01:44:23;37.88;;;23.77;;
50988;SDS011;37008;52.210;21.112;2023-09-18T01:46:48;50.50;;;27.23;;
50988;SDS011;37008;52.210;21.112;2023-09-18T01:49:19;36.33;;;24.52;;
50988;SDS011;37008;52.210;21.112;2023-09-18T01:51:55;53.42;;;29.45;;
50988;SDS011;37008;52.210;21.112;2023-09-18T01:54:21;39.25;;;26.35;;
50988;SDS011;37008;52.210;21.112;2023-09-18T01:56:47;40.88;;;27.55;;
50988;SDS011;37008;52.210;21.112;2023-09-18T01:59:13;43.67;;;25.65;;
50988;SDS011;37008;52.210;21.112;2023-09-18T02:01:38;34.67;;;24.75;;
50988;SDS011;37008;52.210;21.112;2023-09-18T02:04:04;42.20;;;26.65;;
50988;SDS011;37008;52.210;21.112;2023-09-18T02:06:30;31.50;;;22.50;;
50988;SDS011;37008;52.210;21.112;2023-09-18T02:08:55;42.25;;;27.20;;
50988;SDS011;37008;52.210;21.112;2023-09-18T02:11:21;41.90;;;26.60;;
50988;SDS011;37008;52.210;21.112;2023-09-18T02:13:47;43.97;;;23.23;;
50988;SDS011;37008;52.210;21.112;2023-09-18T02:16:12;32.08;;;22.05;;
50988;SDS011;37008;52.210;21.112;2023-09-18T02:18:38;36.60;;;23.05;;
50988;SDS011;37008;52.210;21.112;2023-09-18T02:21:03;45.65;;;27.38;;
50988;SDS011;37008;52.210;21.112;2023-09-18T02:23:29;46.70;;;24.02;;
50988;SDS011;37008;52.210;21.112;2023-09-18T02:25:55;44.85;;;26.90;;
50988;SDS011;37008;52.210;21.112;2023-09-18T02:28:22;39.00;;;24.50;;
50988;SDS011;37008;52.210;21.112;2023-09-18T02:30:47;46.33;;;26.30;;
50988;SDS011;37008;52.210;21.112;2023-09-18T02:33:13;46.75;;;26.67;;
50988;SDS011;37008;52.210;21.112;2023-09-18T02:35:40;35.58;;;24.95;;
50988;SDS011;37008;52.210;21.112;2023-09-18T02:38:06;45.95;;;24.58;;
50988;SDS011;37008;52.210;21.112;2023-09-18T02:40:32;48.70;;;31.80;;
50988;SDS011;37008;52.210;21.112;2023-09-18T02:42:57;44.72;;;29.33;;
50988;SDS011;37008;52.210;21.112;2023-09-18T02:45:23;41.40;;;27.83;;
50988;SDS011;37008;52.210;21.112;2023-09-18T02:47:48;54.30;;;28.98;;
50988;SDS011;37008;52.210;21.112;2023-09-18T02:50:14;46.95;;;29.95;;
50988;SDS011;37008;52.210;21.112;2023-09-18T02:52:39;56.95;;;29.33;;
50988;SDS011;37008;52.210;21.112;2023-09-18T02:55:05;51.00;;;32.35;;
50988;SDS011;37008;52.210;21.112;2023-09-18T02:57:31;59.33;;;32.38;;
50988;SDS011;37008;52.210;21.112;2023-09-18T02:59:56;51.60;;;29.27;;
50988;SDS011;37008;52.210;21.112;2023-09-18T03:02:22;53.30;;;29.23;;
50988;SDS011;37008;52.210;21.112;2023-09-18T03:04:48;50.22;;;28.55;;
50988;SDS011;37008;52.210;21.112;2023-09-18T03:07:14;50.75;;;32.75;;
50988;SDS011;37008;52.210;21.112;2023-09-18T03:09:41;48.30;;;30.40;;
50988;SDS011;37008;52.210;21.112;2023-09-18T03:12:06;69.47;;;39.55;;
50988;SDS011;37008;52.210;21.112;2023-09-18T03:14:32;82.18;;;42.83;;
50988;SDS011;37008;52.210;21.112;2023-09-18T03:16:59;68.00;;;35.95;;
50988;SDS011;37008;52.210;21.112;2023-09-18T03:19:24;66.13;;;36.83;;
50988;SDS011;37008;52.210;21.112;2023-09-18T03:21:51;49.72;;;29.75;;
50988;SDS011;37008;52.210;21.112;2023-09-18T03:24:17;53.40;;;35.83;;
50988;SDS011;37008;52.210;21.112;2023-09-18T03:26:43;49.92;;;31.40;;
50988;SDS011;37008;52.210;21.112;2023-09-18T03:29:09;52.17;;;30.63;;
50988;SDS011;37008;52.210;21.112;2023-09-18T03:31:35;58.72;;;34.92;;
50988;SDS011;37008;52.210;21.112;2023-09-18T03:34:01;72.68;;;37.75;;
50988;SDS011;37008;52.210;21.112;2023-09-18T03:36:26;69.10;;;37.13;;
50988;SDS011;37008;52.210;21.112;2023-09-18T03:38:52;58.85;;;36.33;;
50988;SDS011;37008;52.210;21.112;2023-09-18T03:41:17;65.88;;;38.25;;
50988;SDS011;37008;52.210;21.112;2023-09-18T03:43:43;64.38;;;36.65;;
50988;SDS011;37008;52.210;21.112;2023-09-18T03:46:09;65.25;;;35.58;;
50988;SDS011;37008;52.210;21.112;2023-09-18T03:48:34;76.30;;;38.03;;
50988;SDS011;37008;52.210;21.112;2023-09-18T03:51:06;58.05;;;33.63;;
50988;SDS011;37008;52.210;21.112;2023-09-18T03:53:33;66.60;;;37.47;;
50988;SDS011;37008;52.210;21.112;2023-09-18T03:55:59;63.80;;;38.15;;
50988;SDS011;37008;52.210;21.112;2023-09-18T03:58:24;56.42;;;36.03;;
50988;SDS011;37008;52.210;21.112;2023-09-18T04:00:50;60.08;;;35.70;;
50988;SDS011;37008;52.210;21.112;2023-09-18T04:03:16;54.05;;;33.58;;
50988;SDS011;37008;52.210;21.112;2023-09-18T04:05:42;48.20;;;31.73;;
50988;SDS011;37008;52.210;21.112;2023-09-18T04:08:09;47.10;;;31.13;;
50988;SDS011;37008;52.210;21.112;2023-09-18T04:10:34;54.85;;;32.10;;
50988;SDS011;37008;52.210;21.112;2023-09-18T04:13:00;55.60;;;31.20;;
50988;SDS011;37008;52.210;21.112;2023-09-18T04:15:25;51.53;;;31.88;;
50988;SDS011;37008;52.210;21.112;2023-09-18T04:17:52;48.53;;;33.08;;
50988;SDS011;37008;52.210;21.112;2023-09-18T04:20:18;57.60;;;35.40;;
50988;SDS011;37008;52.210;21.112;2023-09-18T04:22:45;46.45;;;32.00;;
50988;SDS011;37008;52.210;21.112;2023-09-18T04:25:15;60.80;;;35.15;;
50988;SDS011;37008;52.210;21.112;2023-09-18T04:27:41;59.53;;;34.05;;
50988;SDS011;37008;52.210;21.112;2023-09-18T04:30:07;73.30;;;36.70;;
50988;SDS011;37008;52.210;21.112;2023-09-18T04:32:36;71.53;;;39.70;;
50988;SDS011;37008;52.210;21.112;2023-09-18T04:35:03;71.95;;;37.10;;
50988;SDS011;37008;52.210;21.112;2023-09-18T04:37:30;86.68;;;44.67;;
50988;SDS011;37008;52.210;21.112;2023-09-18T04:39:57;66.95;;;42.45;;
50988;SDS011;37008;52.210;21.112;2023-09-18T04:42:22;70.35;;;42.42;;
50988;SDS011;37008;52.210;21.112;2023-09-18T04:44:48;80.03;;;44.08;;
50988;SDS011;37008;52.210;21.112;2023-09-18T04:47:14;86.45;;;43.30;;
50988;SDS011;37008;52.210;21.112;2023-09-18T04:49:40;74.07;;;38.17;;
50988;SDS011;37008;52.210;21.112;2023-09-18T04:52:05;69.03;;;40.25;;
50988;SDS011;37008;52.210;21.112;2023-09-18T04:54:31;78.38;;;43.60;;
50988;SDS011;37008;52.210;21.112;2023-09-18T04:56:57;77.97;;;43.00;;
50988;SDS011;37008;52.210;21.112;2023-09-18T04:59:22;84.75;;;43.75;;
50988;SDS011;37008;52.210;21.112;2023-09-18T05:01:48;95.90;;;46.97;;
50988;SDS011;37008;52.210;21.112;2023-09-18T05:04:13;73.75;;;42.85;;
50988;SDS011;37008;52.210;21.112;2023-09-18T05:06:39;90.00;;;46.60;;
50988;SDS011;37008;52.210;21.112;2023-09-18T05:09:06;86.38;;;44.67;;
50988;SDS011;37008;52.210;21.112;2023-09-18T05:11:32;87.57;;;44.67;;
50988;SDS011;37008;52.210;21.112;2023-09-18T05:13:58;72.20;;;41.67;;
50988;SDS011;37008;52.210;21.112;2023-09-18T05:16:23;62.42;;;38.70;;
50988;SDS011;37008;52.210;21.112;2023-09-18T05:18:49;71.07;;;41.90;;
50988;SDS011;37008;52.210;21.112;2023-09-18T05:21:14;68.68;;;44.70;;
50988;SDS011;37008;52.210;21.112;2023-09-18T05:23:41;73.13;;;44.22;;
50988;SDS011;37008;52.210;21.112;2023-09-18T05:26:06;73.32;;;41.78;;
50988;SDS011;37008;52.210;21.112;2023-09-18T05:28:32;60.97;;;40.92;;
50988;SDS011;37008;52.210;21.112;2023-09-18T05:30:58;70.25;;;44.25;;
50988;SDS011;37008;52.210;21.112;2023-09-18T05:33:23;62.58;;;40.67;;
50988;SDS011;37008;52.210;21.112;2023-09-18T05:35:49;82.03;;;43.85;;
50988;SDS011;37008;52.210;21.112;2023-09-18T05:38:15;68.28;;;43.38;;
50988;SDS011;37008;52.210;21.112;2023-09-18T05:40:43;71.75;;;45.75;;
50988;SDS011;37008;52.210;21.112;2023-09-18T05:43:09;79.40;;;46.13;;
50988;SDS011;37008;52.210;21.112;2023-09-18T05:45:36;79.13;;;46.50;;
50988;SDS011;37008;52.210;21.112;2023-09-18T05:48:03;73.13;;;46.88;;
50988;SDS011;37008;52.210;21.112;2023-09-18T05:50:29;74.10;;;46.92;;
50988;SDS011;37008;52.210;21.112;2023-09-18T05:52:56;81.28;;;44.75;;
50988;SDS011;37008;52.210;21.112;2023-09-18T05:55:28;97.53;;;47.60;;
50988;SDS011;37008;52.210;21.112;2023-09-18T05:57:57;91.03;;;47.90;;
50988;SDS011;37008;52.210;21.112;2023-09-18T06:00:23;108.28;;;50.58;;
50988;SDS011;37008;52.210;21.112;2023-09-18T06:02:49;70.47;;;43.60;;
50988;SDS011;37008;52.210;21.112;2023-09-18T06:05:16;60.42;;;42.05;;
50988;SDS011;37008;52.210;21.112;2023-09-18T06:07:43;64.22;;;41.83;;
50988;SDS011;37008;52.210;21.112;2023-09-18T06:10:09;61.40;;;43.47;;
50988;SDS011;37008;52.210;21.112;2023-09-18T06:12:37;62.55;;;41.60;;
50988;SDS011;37008;52.210;21.112;2023-09-18T06:15:03;66.25;;;44.67;;
50988;SDS011;37008;52.210;21.112;2023-09-18T06:17:30;61.40;;;41.58;;
50988;SDS011;37008;52.210;21.112;2023-09-18T06:19:56;64.88;;;41.67;;
50988;SDS011;37008;52.210;21.112;2023-09-18T06:22:21;80.28;;;46.10;;
50988;SDS011;37008;52.210;21.112;2023-09-18T06:24:47;70.50;;;44.67;;
50988;SDS011;37008;52.210;21.112;2023-09-18T06:27:12;66.47;;;45.38;;
50988;SDS011;37008;52.210;21.112;2023-09-18T06:29:38;69.32;;;44.92;;
50988;SDS011;37008;52.210;21.112;2023-09-18T06:32:04;71.60;;;46.10;;
50988;SDS011;37008;52.210;21.112;2023-09-18T06:34:31;77.15;;;48.20;;
50988;SDS011;37008;52.210;21.112;2023-09-18T06:36:56;53.90;;;39.53;;
50988;SDS011;37008;52.210;21.112;2023-09-18T06:39:22;55.22;;;42.47;;
50988;SDS011;37008;52.210;21.112;2023-09-18T06:41:48;52.78;;;42.47;;
50988;SDS011;37008;52.210;21.112;2023-09-18T06:44:14;41.25;;;35.35;;
50988;SDS011;37008;52.210;21.112;2023-09-18T06:46:40;53.40;;;40.25;;
50988;SDS011;37008;52.210;21.112;2023-09-18T06:49:06;53.70;;;42.50;;
50988;SDS011;37008;52.210;21.112;2023-09-18T06:51:31;52.42;;;39.50;;
50988;SDS011;37008;52.210;21.112;2023-09-18T06:53:57;48.78;;;35.30;;
50988;SDS011;37008;52.210;21.112;2023-09-18T06:56:23;45.92;;;38.05;;
50988;SDS011;37008;52.210;21.112;2023-09-18T06:58:50;44.80;;;35.75;;
50988;SDS011;37008;52.210;21.112;2023-09-18T07:01:16;44.33;;;34.83;;
50988;SDS011;37008;52.210;21.112;2023-09-18T07:03:45;45.22;;;37.20;;
50988;SDS011;37008;52.210;21.112;2023-09-18T07:06:12;48.97;;;36.40;;
50988;SDS011;37008;52.210;21.112;2023-09-18T07:08:44;42.03;;;35.58;;
50988;SDS011;37008;52.210;21.112;2023-09-18T07:11:10;43.88;;;35.20;;
50988;SDS011;37008;52.210;21.112;2023-09-18T07:13:37;41.00;;;34.17;;
50988;SDS011;37008;52.210;21.112;2023-09-18T07:16:03;40.78;;;33.00;;
50988;SDS011;37008;52.210;21.112;2023-09-18T07:18:29;37.80;;;33.75;;
50988;SDS011;37008;52.210;21.112;2023-09-18T07:20:55;34.25;;;30.88;;
50988;SDS011;37008;52.210;21.112;2023-09-18T07:23:20;31.40;;;27.92;;
50988;SDS011;37008;52.210;21.112;2023-09-18T07:25:49;32.17;;;26.40;;
50988;SDS011;37008;52.210;21.112;2023-09-18T07:28:15;31.10;;;27.95;;
50988;SDS011;37008;52.210;21.112;2023-09-18T07:30:45;32.65;;;28.85;;
50988;SDS011;37008;52.210;21.112;2023-09-18T07:33:12;34.08;;;29.90;;
50988;SDS011;37008;52.210;21.112;2023-09-18T07:35:41;31.05;;;27.50;;
50988;SDS011;37008;52.210;21.112;2023-09-18T07:38:06;30.35;;;26.88;;
50988;SDS011;37008;52.210;21.112;2023-09-18T07:40:33;33.00;;;29.42;;
50988;SDS011;37008;52.210;21.112;2023-09-18T07:42:58;29.13;;;26.20;;
50988;SDS011;37008;52.210;21.112;2023-09-18T07:45:24;29.90;;;26.75;;
50988;SDS011;37008;52.210;21.112;2023-09-18T07:47:49;30.67;;;27.63;;
50988;SDS011;37008;52.210;21.112;2023-09-18T07:50:15;30.65;;;26.38;;
50988;SDS011;37008;52.210;21.112;2023-09-18T07:52:41;27.77;;;24.98;;
50988;SDS011;37008;52.210;21.112;2023-09-18T07:55:07;29.23;;;26.10;;
50988;SDS011;37008;52.210;21.112;2023-09-18T07:57:33;27.27;;;24.30;;
50988;SDS011;37008;52.210;21.112;2023-09-18T08:00:03;23.92;;;21.52;;
50988;SDS011;37008;52.210;21.112;2023-09-18T08:02:32;23.45;;;21.15;;
50988;SDS011;37008;52.210;21.112;2023-09-18T08:04:59;24.10;;;21.60;;
50988;SDS011;37008;52.210;21.112;2023-09-18T08:07:26;22.42;;;19.40;;
50988;SDS011;37008;52.210;21.112;2023-09-18T08:09:53;23.05;;;20.75;;
50988;SDS011;37008;52.210;21.112;2023-09-18T08:12:18;20.75;;;18.67;;
50988;SDS011;37008;52.210;21.112;2023-09-18T08:14:44;21.30;;;18.88;;
50988;SDS011;37008;52.210;21.112;2023-09-18T08:17:10;21.00;;;18.83;;
50988;SDS011;37008;52.210;21.112;2023-09-18T08:19:35;21.63;;;19.33;;
50988;SDS011;37008;52.210;21.112;2023-09-18T08:22:01;20.45;;;17.77;;
50988;SDS011;37008;52.210;21.112;2023-09-18T08:24:28;20.52;;;18.70;;
50988;SDS011;37008;52.210;21.112;2023-09-18T08:26:54;18.88;;;17.13;;
50988;SDS011;37008;52.210;21.112;2023-09-18T08:29:21;20.63;;;17.98;;
50988;SDS011;37008;52.210;21.112;2023-09-18T08:31:47;18.45;;;16.63;;
50988;SDS011;37008;52.210;21.112;2023-09-18T08:34:14;18.75;;;16.83;;
50988;SDS011;37008;52.210;21.112;2023-09-18T08:36:40;18.92;;;16.77;;
50988;SDS011;37008;52.210;21.112;2023-09-18T08:39:05;19.50;;;17.55;;
50988;SDS011;37008;52.210;21.112;2023-09-18T08:41:31;18.77;;;17.02;;
50988;SDS011;37008;52.210;21.112;2023-09-18T08:44:01;18.73;;;15.88;;
50988;SDS011;37008;52.210;21.112;2023-09-18T08:46:28;16.85;;;15.15;;
50988;SDS011;37008;52.210;21.112;2023-09-18T08:48:55;18.92;;;17.10;;
50988;SDS011;37008;52.210;21.112;2023-09-18T08:51:21;17.95;;;15.35;;
50988;SDS011;37008;52.210;21.112;2023-09-18T08:53:48;16.70;;;15.13;;
50988;SDS011;37008;52.210;21.112;2023-09-18T08:56:14;18.45;;;15.50;;
50988;SDS011;37008;52.210;21.112;2023-09-18T08:58:42;18.73;;;15.82;;
50988;SDS011;37008;52.210;21.112;2023-09-18T09:01:09;17.92;;;15.98;;
50988;SDS011;37008;52.210;21.112;2023-09-18T09:03:39;16.13;;;14.50;;
50988;SDS011;37008;52.210;21.112;2023-09-18T09:06:06;17.60;;;14.70;;
50988;SDS011;37008;52.210;21.112;2023-09-18T09:08:33;17.15;;;14.00;;
50988;SDS011;37008;52.210;21.112;2023-09-18T09:10:59;18.80;;;13.25;;
50988;SDS011;37008;52.210;21.112;2023-09-18T09:13:25;14.25;;;12.68;;
50988;SDS011;37008;52.210;21.112;2023-09-18T09:15:52;13.60;;;12.30;;
50988;SDS011;37008;52.210;21.112;2023-09-18T09:18:21;15.00;;;13.30;;
50988;SDS011;37008;52.210;21.112;2023-09-18T09:21:03;13.30;;;12.00;;
50988;SDS011;37008;52.210;21.112;2023-09-18T09:23:49;14.05;;;12.50;;
50988;SDS011;37008;52.210;21.112;2023-09-18T09:26:22;15.18;;;13.68;;
50988;SDS011;37008;52.210;21.112;2023-09-18T09:28:47;12.00;;;10.80;;
50988;SDS011;37008;52.210;21.112;2023-09-18T09:31:24;12.88;;;11.27;;
50988;SDS011;37008;52.210;21.112;2023-09-18T09:33:53;14.68;;;11.45;;
50988;SDS011;37008;52.210;21.112;2023-09-18T09:36:19;13.25;;;10.15;;
50988;SDS011;37008;52.210;21.112;2023-09-18T09:38:45;13.40;;;9.95;;
50988;SDS011;37008;52.210;21.112;2023-09-18T09:41:14;19.02;;;10.25;;
50988;SDS011;37008;52.210;21.112;2023-09-18T09:43:42;11.25;;;10.15;;
50988;SDS011;37008;52.210;21.112;2023-09-18T09:46:14;11.48;;;10.00;;
50988;SDS011;37008;52.210;21.112;2023-09-18T09:49:05;10.73;;;9.73;;
50988;SDS011;37008;52.210;21.112;2023-09-18T09:51:31;10.50;;;9.40;;
50988;SDS011;37008;52.210;21.112;2023-09-18T09:53:59;12.07;;;9.00;;
50988;SDS011;37008;52.210;21.112;2023-09-18T09:59:10;9.20;;;8.18;;
50988;SDS011;37008;52.210;21.112;2023-09-18T10:01:37;8.60;;;7.68;;
50988;SDS011;37008;52.210;21.112;2023-09-18T10:04:13;8.27;;;7.50;;
50988;SDS011;37008;52.210;21.112;2023-09-18T10:06:43;12.13;;;7.55;;
50988;SDS011;37008;52.210;21.112;2023-09-18T10:09:12;7.97;;;6.63;;
50988;SDS011;37008;52.210;21.112;2023-09-18T10:11:44;6.80;;;6.20;;
50988;SDS011;37008;52.210;21.112;2023-09-18T10:14:18;9.27;;;6.15;;
50988;SDS011;37008;52.210;21.112;2023-09-18T10:16:49;8.13;;;5.75;;
50988;SDS011;37008;52.210;21.112;2023-09-18T10:19:27;6.55;;;5.47;;
50988;SDS011;37008;52.210;21.112;2023-09-18T10:22:02;5.70;;;5.13;;
50988;SDS011;37008;52.210;21.112;2023-09-18T10:24:42;6.55;;;5.65;;
50988;SDS011;37008;52.210;21.112;2023-09-18T10:27:12;6.70;;;5.13;;
50988;SDS011;37008;52.210;21.112;2023-09-18T10:29:42;10.35;;;5.25;;
50988;SDS011;37008;52.210;21.112;2023-09-18T10:32:10;6.75;;;4.70;;
50988;SDS011;37008;52.210;21.112;2023-09-18T10:34:37;6.35;;;4.40;;
50988;SDS011;37008;52.210;21.112;2023-09-18T10:37:04;4.50;;;3.63;;
50988;SDS011;37008;52.210;21.112;2023-09-18T10:39:31;4.93;;;4.50;;
50988;SDS011;37008;52.210;21.112;2023-09-18T10:42:00;8.52;;;5.35;;
50988;SDS011;37008;52.210;21.112;2023-09-18T10:44:28;8.75;;;5.38;;
50988;SDS011;37008;52.210;21.112;2023-09-18T10:46:56;5.95;;;5.03;;
50988;SDS011;37008;52.210;21.112;2023-09-18T10:49:23;8.05;;;5.63;;
50988;SDS011;37008;52.210;21.112;2023-09-18T10:51:50;7.30;;;5.00;;
50988;SDS011;37008;52.210;21.112;2023-09-18T10:54:24;7.28;;;5.25;;
50988;SDS011;37008;52.210;21.112;2023-09-18T10:56:51;6.28;;;4.70;;
50988;SDS011;37008;52.210;21.112;2023-09-18T10:59:17;9.77;;;5.10;;
50988;SDS011;37008;52.210;21.112;2023-09-18T11:01:44;8.02;;;4.70;;
50988;SDS011;37008;52.210;21.112;2023-09-18T11:04:10;5.72;;;5.20;;
50988;SDS011;37008;52.210;21.112;2023-09-18T11:09:30;9.38;;;5.07;;
50988;SDS011;37008;52.210;21.112;2023-09-18T11:14:41;6.07;;;4.50;;
50988;SDS011;37008;52.210;21.112;2023-09-18T11:20:16;7.65;;;4.70;;
50988;SDS011;37008;52.210;21.112;2023-09-18T11:25:30;6.03;;;4.50;;
50988;SDS011;37008;52.210;21.112;2023-09-18T11:28:14;8.77;;;4.90;;
50988;SDS011;37008;52.210;21.112;2023-09-18T11:30:50;5.18;;;4.68;;
50988;SDS011;37008;52.210;21.112;2023-09-18T11:35:56;5.80;;;4.85;;
50988;SDS011;37008;52.210;21.112;2023-09-18T11:38:22;6.35;;;5.00;;
50988;SDS011;37008;52.210;21.112;2023-09-18T11:40:48;7.38;;;5.65;;
50988;SDS011;37008;52.210;21.112;2023-09-18T11:43:24;9.48;;;5.25;;
50988;SDS011;37008;52.210;21.112;2023-09-18T11:45:52;7.88;;;5.53;;
50988;SDS011;37008;52.210;21.112;2023-09-18T11:48:20;7.18;;;5.85;;
50988;SDS011;37008;52.210;21.112;2023-09-18T11:50:46;6.95;;;5.50;;
50988;SDS011;37008;52.210;21.112;2023-09-18T11:53:15;5.72;;;5.15;;
50988;SDS011;37008;52.210;21.112;2023-09-18T11:55:43;8.15;;;5.75;;
50988;SDS011;37008;52.210;21.112;2023-09-18T11:58:09;9.15;;;4.82;;
50988;SDS011;37008;52.210;21.112;2023-09-18T12:00:35;8.02;;;5.63;;
50988;SDS011;37008;52.210;21.112;2023-09-18T12:03:14;9.35;;;5.25;;
50988;SDS011;37008;52.210;21.112;2023-09-18T12:06:00;7.20;;;5.35;;
50988;SDS011;37008;52.210;21.112;2023-09-18T12:08:30;7.38;;;5.88;;
50988;SDS011;37008;52.210;21.112;2023-09-18T12:10:56;7.10;;;5.53;;
50988;SDS011;37008;52.210;21.112;2023-09-18T12:13:26;6.50;;;5.80;;
50988;SDS011;37008;52.210;21.112;2023-09-18T12:15:59;8.77;;;5.68;;
50988;SDS011;37008;52.210;21.112;2023-09-18T12:18:26;7.53;;;5.55;;
50988;SDS011;37008;52.210;21.112;2023-09-18T12:20:54;9.90;;;5.78;;
50988;SDS011;37008;52.210;21.112;2023-09-18T12:23:21;9.98;;;5.53;;
50988;SDS011;37008;52.210;21.112;2023-09-18T12:25:47;11.55;;;5.95;;
50988;SDS011;37008;52.210;21.112;2023-09-18T12:28:15;8.48;;;5.95;;
50988;SDS011;37008;52.210;21.112;2023-09-18T12:30:45;12.05;;;5.50;;
50988;SDS011;37008;52.210;21.112;2023-09-18T12:33:11;9.15;;;5.95;;
50988;SDS011;37008;52.210;21.112;2023-09-18T12:35:40;11.13;;;5.68;;
50988;SDS011;37008;52.210;21.112;2023-09-18T12:38:15;12.18;;;5.80;;
50988;SDS011;37008;52.210;21.112;2023-09-18T12:40:44;7.10;;;5.47;;
50988;SDS011;37008;52.210;21.112;2023-09-18T12:43:11;8.75;;;5.75;;
50988;SDS011;37008;52.210;21.112;2023-09-18T12:45:40;9.38;;;5.70;;
50988;SDS011;37008;52.210;21.112;2023-09-18T12:48:07;7.43;;;5.20;;
50988;SDS011;37008;52.210;21.112;2023-09-18T12:50:34;10.07;;;5.78;;
50988;SDS011;37008;52.210;21.112;2023-09-18T12:53:12;7.22;;;5.35;;
50988;SDS011;37008;52.210;21.112;2023-09-18T12:55:39;7.82;;;5.88;;
50988;SDS011;37008;52.210;21.112;2023-09-18T12:58:10;10.95;;;5.93;;
50988;SDS011;37008;52.210;21.112;2023-09-18T13:00:49;7.57;;;5.88;;
50988;SDS011;37008;52.210;21.112;2023-09-18T13:03:15;8.05;;;5.88;;
50988;SDS011;37008;52.210;21.112;2023-09-18T13:05:41;10.32;;;6.20;;
50988;SDS011;37008;52.210;21.112;2023-09-18T13:08:07;8.43;;;5.75;;
50988;SDS011;37008;52.210;21.112;2023-09-18T13:10:46;11.65;;;5.78;;
50988;SDS011;37008;52.210;21.112;2023-09-18T13:13:18;5.85;;;5.25;;
50988;SDS011;37008;52.210;21.112;2023-09-18T13:15:44;10.80;;;6.95;;
50988;SDS011;37008;52.210;21.112;2023-09-18T13:18:13;6.80;;;5.93;;
50988;SDS011;37008;52.210;21.112;2023-09-18T13:20:40;10.02;;;5.95;;
50988;SDS011;37008;52.210;21.112;2023-09-18T13:23:06;8.63;;;5.47;;
50988;SDS011;37008;52.210;21.112;2023-09-18T13:25:33;8.07;;;6.10;;
50988;SDS011;37008;52.210;21.112;2023-09-18T13:28:00;7.28;;;6.55;;
50988;SDS011;37008;52.210;21.112;2023-09-18T13:30:27;9.40;;;6.00;;
50988;SDS011;37008;52.210;21.112;2023-09-18T13:33:00;9.43;;;6.10;;
50988;SDS011;37008;52.210;21.112;2023-09-18T13:35:31;6.85;;;5.72;;
50988;SDS011;37008;52.210;21.112;2023-09-18T13:37:57;8.68;;;6.40;;
50988;SDS011;37008;52.210;21.112;2023-09-18T13:40:23;8.95;;;5.90;;
50988;SDS011;37008;52.210;21.112;2023-09-18T13:42:48;7.95;;;6.47;;
50988;SDS011;37008;52.210;21.112;2023-09-18T13:45:14;10.45;;;6.50;;
50988;SDS011;37008;52.210;21.112;2023-09-18T13:47:41;8.38;;;6.03;;
50988;SDS011;37008;52.210;21.112;2023-09-18T13:50:07;6.65;;;5.43;;
50988;SDS011;37008;52.210;21.112;2023-09-18T13:52:33;11.90;;;5.93;;
50988;SDS011;37008;52.210;21.112;2023-09-18T13:54:59;7.55;;;6.18;;
50988;SDS011;37008;52.210;21.112;2023-09-18T13:57:28;6.85;;;5.47;;
50988;SDS011;37008;52.210;21.112;2023-09-18T13:59:54;8.75;;;5.82;;
50988;SDS011;37008;52.210;21.112;2023-09-18T14:02:20;6.53;;;5.53;;
50988;SDS011;37008;52.210;21.112;2023-09-18T14:04:45;7.13;;;5.50;;
50988;SDS011;37008;52.210;21.112;2023-09-18T14:07:11;8.85;;;5.40;;
50988;SDS011;37008;52.210;21.112;2023-09-18T14:09:38;6.18;;;5.43;;
50988;SDS011;37008;52.210;21.112;2023-09-18T14:12:04;7.25;;;5.32;;
50988;SDS011;37008;52.210;21.112;2023-09-18T14:14:33;9.13;;;5.93;;
50988;SDS011;37008;52.210;21.112;2023-09-18T14:17:00;6.68;;;5.50;;
50988;SDS011;37008;52.210;21.112;2023-09-18T14:19:27;5.97;;;5.38;;
50988;SDS011;37008;52.210;21.112;2023-09-18T14:21:53;6.07;;;5.47;;
50988;SDS011;37008;52.210;21.112;2023-09-18T14:24:18;8.80;;;5.60;;
50988;SDS011;37008;52.210;21.112;2023-09-18T14:26:47;6.20;;;5.50;;
50988;SDS011;37008;52.210;21.112;2023-09-18T14:29:14;7.60;;;5.55;;
50988;SDS011;37008;52.210;21.112;2023-09-18T14:31:39;7.30;;;5.63;;
50988;SDS011;37008;52.210;21.112;2023-09-18T14:34:05;7.60;;;5.10;;
50988;SDS011;37008;52.210;21.112;2023-09-18T14:36:31;7.85;;;5.90;;